Calvert, Alabama
Current Conditions -  °F | °C
As of 9:56 AM on Thursday 29 Jan 2015 (Local Time) from KMOB Reporting Station
Few Clouds Few Clouds  
Wind Chill: 64°   Ceiling: Unl
Heat Index: 64°   Visibility: 10mi
Dew Point: 51°   Wind: 17mph
Humidity: 63%   Direction: 170°S
Pressure: 30.28"   Gusts: 23mph
Location:  31.15°N, 88.01°W
Report Text: KMOB 291556Z 17015G20KT 10SM FEW150 FEW250 18/11 A3028 RMK AO2 SLP254 T01780106
Loading
Personal Weather Stations






























Interactive Weather Map New forecast layout! Learn more

10-Day Weather Forecast

Advertisements
Track Severe Weather on mobile